Terminal Aerodrome Forecast
Issued by NWS Charleston, WV

Current Version | Previous Version | Text Only | Print | Product List | Glossary Off
Versions: 1 2 3 4 5 6 7 8 9 10 11 12 13 14 15 16 17 18 19 20 21 22

000
FTUS41 KRLX 241723
TAFPKB
TAF
KPKB 241723Z 2418/2518 22007KT P6SM SCT080
     FM250400 VRB03KT P6SM VCSH BKN090
     FM250800 VRB03KT P6SM BKN050
     FM251600 22012G18KT P6SM BKN070=

USA.gov is the U.S. government's official web portal to all federal, state and local government web resources and services.